Time;durP1;ratioP1;P1;durP2;ratioP2;P2;SDS_P1;SDS_P2;PMS_P1;PMS_P2;Temp;Humidity;BMP_temperature;BMP_pressure;BME280_temperature;BME280_humidity;BME280_pressure;Samples;Min_cycle;Max_cycle;Signal;HPM_P1;HPM_P2
2022/03/23 00:02:11;;;;;;;565.15;97.03;;;;;;;2.78;100.00;103293.50;4793900;29;20464;-81
2022/03/23 00:04:36;;;;;;;171.50;69.70;;;;;;;2.95;100.00;103311.16;4778581;29;20034;-81
2022/03/23 00:07:02;;;;;;;160.40;67.03;;;;;;;2.95;100.00;103312.97;4794030;29;20626;-80
2022/03/23 00:09:27;;;;;;;180.63;67.65;;;;;;;2.56;100.00;103253.97;4791670;29;20045;-80
2022/03/23 00:11:53;;;;;;;206.23;72.97;;;;;;;2.89;100.00;103318.63;4791401;29;20053;-80
2022/03/23 00:14:19;;;;;;;176.50;67.78;;;;;;;2.82;100.00;103305.69;4809943;29;20058;-81
2022/03/23 00:16:44;;;;;;;161.45;63.65;;;;;;;2.82;100.00;103303.03;4793342;29;20045;-81
2022/03/23 00:19:10;;;;;;;163.70;66.93;;;;;;;2.66;100.00;103285.38;4809771;29;20031;-81
2022/03/23 00:21:37;;;;;;;241.80;79.53;;;;;;;2.67;100.00;103300.38;4791719;29;20060;-81
2022/03/23 00:24:03;;;;;;;268.35;82.18;;;;;;;2.69;100.00;103317.94;4794091;29;20046;-81
2022/03/23 00:26:28;;;;;;;252.27;83.47;;;;;;;2.72;100.00;103320.44;4789136;29;20439;-81
2022/03/23 00:28:54;;;;;;;225.25;79.22;;;;;;;2.77;100.00;103321.03;4802801;29;20055;-81
2022/03/23 00:31:20;;;;;;;243.75;82.82;;;;;;;2.76;100.00;103307.84;4814846;29;20059;-81
2022/03/23 00:33:47;;;;;;;220.80;77.38;;;;;;;2.88;100.00;103324.88;4809741;29;20035;-81
2022/03/23 00:36:13;;;;;;;207.05;77.82;;;;;;;2.86;100.00;103308.16;4777875;29;20454;-80
2022/03/23 00:38:38;;;;;;;215.52;78.03;;;;;;;2.83;100.00;103294.09;4809065;29;20087;-81
2022/03/23 00:41:04;;;;;;;241.85;83.45;;;;;;;2.92;100.00;103305.16;4807155;29;20043;-81
2022/03/23 00:43:30;;;;;;;203.13;75.32;;;;;;;2.95;100.00;103303.19;4790765;30;20471;-81
2022/03/23 00:45:55;;;;;;;218.00;78.78;;;;;;;2.97;100.00;103295.09;4774186;30;20047;-80
2022/03/23 00:48:21;;;;;;;227.85;75.75;;;;;;;3.12;100.00;103309.34;4790818;29;20046;-81
2022/03/23 00:50:48;;;;;;;227.70;77.95;;;;;;;3.18;100.00;103307.19;4792790;29;20041;-80
2022/03/23 00:53:13;;;;;;;266.02;78.15;;;;;;;3.28;100.00;103304.84;4792942;29;20051;-81
2022/03/23 00:55:42;;;;;;;265.67;81.57;;;;;;;3.35;100.00;103310.66;4807245;29;20798;-80
2022/03/23 00:58:09;;;;;;;216.60;75.32;;;;;;;3.29;100.00;103295.91;4808022;29;20027;-80
2022/03/23 01:00:34;;;;;;;210.93;74.30;;;;;;;3.20;100.00;103286.66;4785085;29;20034;-79
2022/03/23 01:02:59;;;;;;;286.33;79.90;;;;;;;3.29;100.00;103312.72;4776256;29;20034;-80
2022/03/23 01:05:26;;;;;;;301.63;81.45;;;;;;;3.35;100.00;103306.19;4762120;29;20551;-80
2022/03/23 01:07:52;;;;;;;262.70;82.32;;;;;;;3.38;100.00;103302.47;4792194;29;20041;-79
2022/03/23 01:10:17;;;;;;;403.83;91.20;;;;;;;3.48;100.00;103299.19;4808573;29;20026;-80
2022/03/23 01:12:45;;;;;;;329.73;88.60;;;;;;;3.56;100.00;103303.19;4790989;29;20058;-80
2022/03/23 01:15:12;;;;;;;294.17;86.85;;;;;;;3.43;100.00;103277.31;4807226;29;20035;-80
2022/03/23 01:17:39;;;;;;;264.00;85.85;;;;;;;3.58;100.00;103304.81;4791333;29;20034;-80
2022/03/23 01:20:08;;;;;;;373.83;95.18;;;;;;;3.52;100.00;103294.53;4806571;29;20114;-80
2022/03/23 01:22:34;;;;;;;312.20;90.28;;;;;;;3.46;100.00;103282.44;4791715;29;20111;-80
2022/03/23 01:25:00;;;;;;;257.05;86.38;;;;;;;3.56;100.00;103303.19;4794317;29;20023;-80
2022/03/23 01:27:27;;;;;;;312.02;93.20;;;;;;;3.53;100.00;103294.44;4810144;29;20039;-80
2022/03/23 01:29:52;;;;;;;731.40;109.15;;;;;;;3.59;100.00;103305.69;4810571;29;20031;-80
2022/03/23 01:32:18;;;;;;;370.67;95.97;;;;;;;3.38;100.00;103282.06;4789442;29;20102;-81
2022/03/23 01:34:43;;;;;;;310.45;92.10;;;;;;;3.51;100.00;103311.47;4792916;29;20481;-81
2022/03/23 01:37:09;;;;;;;347.02;96.82;;;;;;;3.49;100.00;103300.03;4778512;29;20034;-81
2022/03/23 01:39:34;;;;;;;410.90;102.70;;;;;;;3.50;100.00;103291.09;4817026;29;20123;-81
2022/03/23 01:42:00;;;;;;;349.00;97.53;;;;;;;3.35;100.00;103265.41;4794436;29;20045;-80
2022/03/23 01:44:26;;;;;;;403.35;93.57;;;;;;;3.51;100.00;103290.16;4780292;29;20039;-80
2022/03/23 01:47:08;;;;;;;387.55;92.15;;;;;;;3.56;100.00;103301.38;4776760;29;20073;-80
2022/03/23 01:49:36;;;;;;;547.78;95.93;;;;;;;3.57;100.00;103299.56;4807592;29;20034;-80
2022/03/23 01:52:04;;;;;;;246.88;75.53;;;;;;;3.52;100.00;103292.72;4789376;29;20038;-80
2022/03/23 01:54:29;;;;;;;236.18;76.00;;;;;;;3.52;100.00;103290.06;4790986;29;20034;-80
2022/03/23 01:56:56;;;;;;;144.73;66.97;;;;;;;3.56;100.00;103284.56;4789506;29;20034;-80
2022/03/23 01:59:22;;;;;;;150.73;65.07;;;;;;;3.52;100.00;103281.22;4806913;29;20092;-80
2022/03/23 02:01:47;;;;;;;164.55;69.25;;;;;;;3.62;100.00;103293.03;4772942;29;20047;-80
2022/03/23 02:04:13;;;;;;;557.55;85.20;;;;;;;3.61;100.00;103291.31;4788492;29;20035;-81
2022/03/23 02:06:38;;;;;;;331.08;72.45;;;;;;;3.29;100.00;103248.00;4772420;30;20442;-80
2022/03/23 02:09:04;;;;;;;235.93;69.25;;;;;;;3.58;100.00;103295.97;4758790;30;20463;-80
2022/03/23 02:11:36;;;;;;;208.40;67.32;;;;;;;3.61;100.00;103299.31;4791138;29;20066;-80
2022/03/23 02:14:01;;;;;;;137.73;62.53;;;;;;;3.43;100.00;103261.34;4790410;29;20050;-80
2022/03/23 02:16:27;;;;;;;253.90;67.03;;;;;;;3.55;100.00;103275.72;4791105;29;20378;-80
2022/03/23 02:18:53;;;;;;;383.40;75.75;;;;;;;3.63;100.00;103289.41;4791789;29;20121;-81
2022/03/23 02:21:18;;;;;;;290.25;67.90;;;;;;;3.56;100.00;103284.56;4775156;29;20035;-81
2022/03/23 02:23:44;;;;;;;125.63;55.35;;;;;;;3.60;100.00;103283.41;4791613;29;20038;-81
2022/03/23 02:26:09;;;;;;;104.38;53.67;;;;;;;3.64;100.00;103288.47;4806577;29;20062;-80
2022/03/23 02:28:36;;;;;;;136.30;58.95;;;;;;;3.62;100.00;103279.72;4807308;29;20039;-81
2022/03/23 02:31:03;;;;;;;177.60;60.03;;;;;;;3.63;100.00;103280.56;4805464;29;20027;-80
2022/03/23 02:33:28;;;;;;;141.60;57.20;;;;;;;3.66;100.00;103281.25;4791113;29;20050;-80
2022/03/23 02:35:53;;;;;;;193.85;60.78;;;;;;;3.36;100.00;103227.19;4788685;29;20121;-81
2022/03/23 02:38:20;;;;;;;126.10;57.55;;;;;;;3.76;100.00;103292.19;4807368;29;20039;-80
2022/03/23 02:40:47;;;;;;;283.13;67.32;;;;;;;3.78;100.00;103284.13;4806330;29;20070;-80
2022/03/23 02:43:13;;;;;;;276.90;65.47;;;;;;;3.48;100.00;103240.63;4771212;30;20050;-81
2022/03/23 02:45:39;;;;;;;167.90;62.38;;;;;;;3.70;100.00;103263.28;4773791;30;20046;-81
2022/03/23 02:48:06;;;;;;;327.92;65.88;;;;;;;3.76;100.00;103273.56;4791134;29;20023;-79
2022/03/23 02:50:33;;;;;;;209.27;65.63;;;;;;;3.74;100.00;103270.09;4794931;29;20041;-80
2022/03/23 03:01:54;;;;;;;170.07;57.63;;;;;;;3.92;100.00;103276.97;4806246;29;20552;-80
2022/03/23 03:04:21;;;;;;;387.92;72.15;;;;;;;3.90;100.00;103284.19;4776796;30;20491;-81
2022/03/23 03:06:47;;;;;;;420.45;68.50;;;;;;;3.74;100.00;103244.38;4757601;30;20359;-80
2022/03/23 03:09:13;;;;;;;453.67;74.93;;;;;;;3.71;100.00;103238.38;4797968;29;20369;-80
2022/03/23 03:11:38;;;;;;;317.42;73.13;;;;;;;3.77;100.00;103259.28;4806662;29;20031;-80
2022/03/23 03:14:04;;;;;;;199.10;64.40;;;;;;;3.83;100.00;103263.38;4774843;29;20063;-80
2022/03/23 03:16:30;;;;;;;255.15;64.72;;;;;;;3.79;100.00;103261.88;4792830;29;20050;-80
2022/03/23 03:18:55;;;;;;;210.10;66.53;;;;;;;3.87;100.00;103272.88;4774969;29;20033;-80
2022/03/23 03:21:21;;;;;;;199.10;64.53;;;;;;;3.94;100.00;103282.19;4773934;29;20049;-80
2022/03/23 03:23:47;;;;;;;162.23;60.17;;;;;;;3.95;100.00;103279.47;4799984;29;20042;-81
2022/03/23 03:26:14;;;;;;;212.80;65.95;;;;;;;3.95;100.00;103276.81;4779435;29;20047;-81
2022/03/23 03:28:41;;;;;;;137.48;57.45;;;;;;;3.82;100.00;103251.88;4771747;29;20035;-81
2022/03/23 03:31:08;;;;;;;385.38;78.70;;;;;;;3.85;100.00;103246.34;4796681;29;20029;-81
2022/03/23 03:33:35;;;;;;;264.42;66.43;;;;;;;3.94;100.00;103260.88;4800816;29;20993;-81
2022/03/23 03:36:01;;;;;;;152.80;60.13;;;;;;;4.11;100.00;103289.19;4806698;29;20411;-80
2022/03/23 03:38:27;;;;;;;217.07;61.17;;;;;;;4.13;100.00;103293.44;4788650;29;20035;-80
2022/03/23 03:40:54;;;;;;;281.38;68.97;;;;;;;4.15;100.00;103302.19;4804094;29;20046;-81
2022/03/23 03:43:19;;;;;;;272.05;65.03;;;;;;;4.12;100.00;103297.06;4794197;29;20034;-80
2022/03/23 03:45:45;;;;;;;307.80;69.93;;;;;;;4.14;100.00;103295.16;4808432;29;20074;-80
2022/03/23 03:48:12;;;;;;;702.15;78.40;;;;;;;4.16;100.00;103295.06;4791968;29;20027;-80
2022/03/23 03:50:39;;;;;;;642.35;66.65;;;;;;;4.11;100.00;103306.00;4793752;29;20644;-80
2022/03/23 03:53:07;;;;;;;648.75;74.57;;;;;;;4.13;100.00;103290.78;4793378;29;20035;-81
2022/03/23 03:55:33;;;;;;;556.22;76.40;;;;;;;4.12;100.00;103289.06;4793353;29;20038;-80
2022/03/23 03:57:59;;;;;;;304.38;70.22;;;;;;;4.19;100.00;103287.72;4793510;29;20512;-81
2022/03/23 04:00:24;;;;;;;367.05;74.40;;;;;;;4.14;100.00;103281.84;4794408;29;20069;-79
2022/03/23 04:02:50;;;;;;;325.52;68.88;;;;;;;4.15;100.00;103275.56;4817055;29;20035;-81
2022/03/23 04:05:15;;;;;;;227.60;66.03;;;;;;;4.20;100.00;103289.44;4767150;29;20393;-80
2022/03/23 04:07:40;;;;;;;214.25;63.03;;;;;;;4.09;100.00;103267.94;4780366;29;20073;-78
2022/03/23 04:10:07;;;;;;;264.17;66.85;;;;;;;4.20;100.00;103286.75;4812927;29;20105;-80
2022/03/23 04:12:32;;;;;;;566.70;76.43;;;;;;;4.12;100.00;103264.22;4807619;29;20062;-81
2022/03/23 04:14:58;;;;;;;280.80;64.90;;;;;;;4.20;100.00;103277.91;4793112;29;20074;-80
2022/03/23 04:17:23;;;;;;;408.77;76.25;;;;;;;4.09;100.00;103262.63;4791569;29;20039;-81
2022/03/23 04:19:49;;;;;;;209.90;63.38;;;;;;;4.18;100.00;103285.16;4793057;29;20039;-80
2022/03/23 04:22:14;;;;;;;871.35;79.68;;;;;;;4.16;100.00;103297.72;4776516;29;20129;-81
2022/03/23 04:24:39;;;;;;;1322.15;91.38;;;;;;;4.13;100.00;103281.91;4808225;29;20082;-81
2022/03/23 04:27:05;;;;;;;720.63;73.60;;;;;;;4.17;100.00;103284.31;4794001;29;20129;-80
2022/03/23 04:29:31;;;;;;;350.80;61.05;;;;;;;4.09;100.00;103262.63;4808752;29;20035;-81
2022/03/23 04:31:56;;;;;;;1214.07;82.25;;;;;;;4.16;100.00;103285.25;4804191;29;20035;-80
2022/03/23 04:34:22;;;;;;;440.73;64.53;;;;;;;4.19;100.00;103274.41;4785938;30;20081;-80
2022/03/23 04:36:48;;;;;;;539.15;65.03;;;;;;;4.15;100.00;103270.22;4796853;29;20072;-81
2022/03/23 04:39:13;;;;;;;345.30;65.10;;;;;;;4.18;100.00;103266.53;4793370;29;20085;-81
2022/03/23 04:41:38;;;;;;;204.95;56.78;;;;;;;4.24;100.00;103277.66;4809155;29;20035;-81
2022/03/23 04:44:04;;;;;;;171.20;56.65;;;;;;;4.25;100.00;103278.50;4777696;29;20115;-80
2022/03/23 04:46:29;;;;;;;332.52;62.35;;;;;;;4.16;100.00;103263.94;4799603;29;20051;-80
2022/03/23 04:48:57;;;;;;;422.50;68.82;;;;;;;4.30;100.00;103278.19;4777483;29;20099;-80
2022/03/23 04:51:23;;;;;;;294.92;55.47;;;;;;;4.27;100.00;103278.38;4805880;29;20031;-80
2022/03/23 04:53:48;;;;;;;358.40;56.08;;;;;;;4.23;100.00;103259.06;4790237;29;20373;-81
2022/03/23 04:56:14;;;;;;;167.10;50.45;;;;;;;4.33;100.00;103280.66;4775703;29;20505;-81
2022/03/23 04:58:41;;;;;;;308.75;54.63;;;;;;;4.33;100.00;103283.34;4791277;29;20042;-81
2022/03/23 05:01:06;;;;;;;223.20;52.60;;;;;;;4.28;100.00;103269.47;4792250;29;20031;-81
2022/03/23 05:03:32;;;;;;;245.80;55.63;;;;;;;4.33;100.00;103283.34;4787248;29;20103;-81
2022/03/23 05:05:57;;;;;;;253.65;53.03;;;;;;;4.33;100.00;103278.00;4790383;29;20118;-82
2022/03/23 05:08:23;;;;;;;703.42;59.65;;;;;;;4.30;100.00;103281.72;4808690;29;20180;-80
2022/03/23 05:10:48;;;;;;;315.50;51.35;;;;;;;4.21;100.00;103284.97;4788597;29;20027;-80
2022/03/23 05:13:14;;;;;;;306.75;53.65;;;;;;;4.22;100.00;103276.03;4792640;29;20059;-80
2022/03/23 05:15:39;;;;;;;475.38;60.25;;;;;;;4.21;100.00;103285.84;4775155;29;20031;-79
2022/03/23 05:18:05;;;;;;;172.65;46.83;;;;;;;4.17;100.00;103284.31;4774888;29;20454;-80
2022/03/23 05:20:31;;;;;;;406.67;57.42;;;;;;;4.13;100.00;103272.13;4784960;29;20058;-79
2022/03/23 05:22:56;;;;;;;666.03;63.90;;;;;;;4.22;100.00;103290.19;4784899;29;20069;-79
2022/03/23 05:25:21;;;;;;;228.10;48.53;;;;;;;4.22;100.00;103286.69;4784306;29;20031;-79
2022/03/23 05:27:47;;;;;;;752.67;62.67;;;;;;;4.12;100.00;103273.06;4782151;29;20042;-80
2022/03/23 05:30:13;;;;;;;524.63;56.97;;;;;;;4.13;100.00;103276.59;4797098;29;20656;-81
2022/03/23 05:32:39;;;;;;;223.75;50.28;;;;;;;3.96;100.00;103243.03;4790407;29;20039;-79
2022/03/23 05:35:06;;;;;;;120.97;45.72;;;;;;;4.20;100.00;103281.44;4801517;29;20049;-80
2022/03/23 05:37:33;;;;;;;274.30;53.70;;;;;;;4.18;100.00;103275.38;4800166;29;20102;-80
2022/03/23 05:39:59;;;;;;;201.70;46.67;;;;;;;4.29;100.00;103288.00;4773226;29;20065;-81
2022/03/23 05:42:25;;;;;;;279.67;50.47;;;;;;;4.11;100.00;103263.38;4799821;29;20035;-80
2022/03/23 05:44:50;;;;;;;195.30;47.05;;;;;;;4.02;100.00;103253.28;4796653;29;20043;-80
2022/03/23 05:47:16;;;;;;;151.93;46.00;;;;;;;4.12;100.00;103273.06;4800131;29;20023;-80
2022/03/23 05:49:42;;;;;;;738.88;67.75;;;;;;;4.23;100.00;103283.91;4798693;29;20030;-79
2022/03/23 05:52:07;;;;;;;694.00;69.82;;;;;;;4.31;100.00;103291.44;4781942;29;20062;-79
2022/03/23 05:54:32;;;;;;;108.70;42.72;;;;;;;4.32;100.00;103292.28;4769187;29;20038;-79
2022/03/23 05:57:02;;;;;;;116.65;44.60;;;;;;;4.34;100.00;103291.25;4787252;29;20055;-80
2022/03/23 05:59:29;;;;;;;104.65;42.42;;;;;;;4.38;100.00;103291.91;4807603;29;20034;-80
2022/03/23 06:01:54;;;;;;;236.63;47.75;;;;;;;4.27;100.00;103271.25;4782506;29;20038;-80
2022/03/23 06:04:20;;;;;;;135.27;44.17;;;;;;;4.29;100.00;103282.66;4801406;29;20031;-81
2022/03/23 06:06:45;;;;;;;418.52;49.92;;;;;;;4.37;100.00;103300.84;4780160;29;20409;-79
2022/03/23 06:09:12;;;;;;;613.67;59.53;;;;;;;4.34;100.00;103290.38;4816173;29;20032;-84
2022/03/23 06:11:38;;;;;;;175.55;44.58;;;;;;;4.27;100.00;103291.72;4805679;29;20031;-83
2022/03/23 06:14:04;;;;;;;284.00;48.95;;;;;;;4.35;100.00;103308.09;4809088;29;20069;-81
2022/03/23 06:16:29;;;;;;;122.35;39.97;;;;;;;4.32;100.00;103303.81;4811975;29;20043;-83
2022/03/23 06:18:55;;;;;;;161.93;43.40;;;;;;;4.34;100.00;103309.91;4792081;29;20098;-80
2022/03/23 06:21:21;;;;;;;247.60;45.25;;;;;;;4.34;100.00;103309.03;4783698;29;20127;-82
2022/03/23 06:23:46;;;;;;;135.80;41.15;;;;;;;4.32;100.00;103314.47;4802215;29;20452;-80
2022/03/23 06:26:12;;;;;;;197.20;44.42;;;;;;;4.30;100.00;103311.03;4801872;29;20092;-80
2022/03/23 06:28:37;;;;;;;492.88;54.00;;;;;;;4.12;100.00;103294.41;4791682;29;20526;-81
2022/03/23 06:31:03;;;;;;;284.45;45.83;;;;;;;4.29;100.00;103324.47;4814755;29;20038;-81
2022/03/23 06:33:28;;;;;;;405.88;49.83;;;;;;;4.25;100.00;103315.81;4787762;29;20050;-80
2022/03/23 06:35:54;;;;;;;373.67;50.42;;;;;;;4.10;100.00;103308.75;4791969;29;20038;-81
2022/03/23 06:38:20;;;;;;;354.05;49.97;;;;;;;4.14;100.00;103327.16;4790979;29;20054;-80
2022/03/23 06:40:45;;;;;;;179.32;42.78;;;;;;;4.12;100.00;103322.84;4785690;29;20066;-79
2022/03/23 06:43:11;;;;;;;449.88;54.55;;;;;;;4.15;100.00;103320.84;4802465;29;20126;-79
2022/03/23 06:45:40;;;;;;;375.58;50.08;;;;;;;4.11;100.00;103324.66;4789818;29;20368;-82
2022/03/23 06:48:06;;;;;;;324.05;46.95;;;;;;;3.86;100.00;103297.81;4810721;29;20019;-80
2022/03/23 06:50:31;;;;;;;206.60;43.67;;;;;;;4.04;100.00;103325.13;4793170;29;20039;-82
2022/03/23 06:52:57;;;;;;;172.15;40.90;;;;;;;4.13;100.00;103317.41;4791608;29;20055;-80
2022/03/23 06:55:22;;;;;;;367.85;46.35;;;;;;;4.27;100.00;103316.56;4799003;29;20035;-80
2022/03/23 06:57:48;;;;;;;485.17;54.15;;;;;;;4.37;100.00;103315.03;4781375;29;20042;-80
2022/03/23 07:00:13;;;;;;;253.15;45.88;;;;;;;4.38;100.00;103318.56;4778659;29;20049;-80
2022/03/23 07:02:43;;;;;;;277.30;46.80;;;;;;;4.40;100.00;103322.84;4776422;29;20394;-79
2022/03/23 07:05:11;;;;;;;245.38;45.58;;;;;;;4.30;100.00;103302.19;4777362;29;20039;-80
2022/03/23 07:07:37;;;;;;;310.52;49.58;;;;;;;4.41;100.00;103329.03;4795475;29;20042;-79
2022/03/23 07:10:04;;;;;;;157.57;41.88;;;;;;;4.32;100.00;103333.13;4798043;29;20043;-81
2022/03/23 07:12:31;;;;;;;291.00;45.05;;;;;;;4.33;100.00;103333.97;4797570;29;20130;-79
2022/03/23 07:14:57;;;;;;;315.30;46.45;;;;;;;4.34;100.00;103333.00;4800003;29;20138;-81
2022/03/23 07:17:23;;;;;;;379.02;47.22;;;;;;;4.28;100.00;103336.09;4800792;29;20050;-79
2022/03/23 07:19:49;;;;;;;417.98;51.20;;;;;;;4.11;100.00;103315.81;4786452;29;20038;-81
2022/03/23 07:22:15;;;;;;;229.43;45.92;;;;;;;4.19;100.00;103343.69;4804256;29;20109;-80
2022/03/23 07:24:42;;;;;;;195.63;43.50;;;;;;;4.13;100.00;103322.75;4817153;29;20027;-81
2022/03/23 07:27:07;;;;;;;118.50;38.42;;;;;;;4.05;100.00;103324.19;4794147;29;20027;-82
2022/03/23 07:29:33;;;;;;;125.60;40.75;;;;;;;4.15;100.00;103330.66;4809783;29;20051;-82
2022/03/23 07:31:58;;;;;;;114.35;39.28;;;;;;;4.30;100.00;103347.50;4789817;29;20042;-79
2022/03/23 07:34:24;;;;;;;119.90;40.40;;;;;;;4.28;100.00;103322.75;4774445;29;20043;-79
2022/03/23 07:36:49;;;;;;;99.63;38.90;;;;;;;4.57;100.00;103342.22;4776882;29;20065;-80
2022/03/23 07:39:20;;;;;;;89.63;38.38;;;;;;;4.43;100.00;103349.28;4807224;29;20054;-81
2022/03/23 07:41:50;;;;;;;73.82;36.55;;;;;;;4.35;100.00;103345.41;4804072;29;20039;-80
2022/03/23 07:44:17;;;;;;;110.22;38.15;;;;;;;4.34;100.00;103338.34;4797224;29;20046;-81
2022/03/23 07:46:42;;;;;;;99.75;37.58;;;;;;;4.31;100.00;103330.56;4801324;29;20035;-80
2022/03/23 07:49:08;;;;;;;107.03;38.53;;;;;;;4.48;100.00;103349.03;4771234;29;20037;-79
2022/03/23 07:51:34;;;;;;;88.10;36.53;;;;;;;4.34;100.00;103306.34;4785949;29;20103;-79
2022/03/23 07:53:59;;;;;;;166.55;39.40;;;;;;;4.59;100.00;103338.50;4784984;29;20026;-81
2022/03/23 07:56:24;;;;;;;105.88;36.55;;;;;;;4.57;100.00;103334.22;4785371;29;20054;-80
2022/03/23 07:58:50;;;;;;;164.38;41.15;;;;;;;4.77;100.00;103340.94;4784788;29;20031;-79
2022/03/23 08:01:15;;;;;;;94.15;37.53;;;;;;;4.87;100.00;103336.75;4805267;29;20593;-79
2022/03/23 08:03:41;;;;;;;96.07;38.08;;;;;;;4.94;100.00;103336.25;4792414;29;20042;-80
2022/03/23 08:06:07;;;;;;;107.75;38.13;;;;;;;4.84;100.00;103321.81;4818282;29;20054;-80
2022/03/23 08:08:33;;;;;;;112.80;39.72;;;;;;;5.04;100.00;103338.31;4798192;29;20045;-80
2022/03/23 08:11:00;;;;;;;122.68;39.88;;;;;;;4.99;100.00;103340.44;4805739;29;20474;-80
2022/03/23 08:13:25;;;;;;;148.77;41.63;;;;;;;4.77;100.00;103335.63;4784391;29;20116;-80
2022/03/23 08:15:51;;;;;;;247.60;48.08;;;;;;;4.83;100.00;103345.91;4785894;29;20420;-80
2022/03/23 08:18:21;;;;;;;186.90;41.40;;;;;;;4.81;100.00;103334.50;4783896;29;20060;-78
2022/03/23 08:20:47;;;;;;;228.30;41.80;;;;;;;4.86;100.00;103341.22;4785695;29;20039;-80
2022/03/23 08:23:15;;;;;;;223.43;39.80;;;;;;;4.88;100.00;103343.81;4789468;29;20084;-79
2022/03/23 08:25:42;;;;;;;144.35;41.67;;;;;;;4.90;100.00;103347.19;4786888;29;20040;-80
2022/03/23 08:28:09;;;;;;;159.63;40.30;;;;;;;4.81;100.00;103321.16;4798052;29;20047;-80
2022/03/23 08:30:35;;;;;;;188.52;40.28;;;;;;;4.92;100.00;103358.66;4800181;29;20042;-79
2022/03/23 08:33:02;;;;;;;128.63;37.92;;;;;;;4.88;100.00;103349.13;4806849;29;20688;-79
2022/03/23 08:35:29;;;;;;;90.53;34.75;;;;;;;4.89;100.00;103342.84;4806812;29;20130;-78
2022/03/23 08:37:54;;;;;;;85.00;36.22;;;;;;;4.84;100.00;103294.28;4806874;29;20035;-79
2022/03/23 08:40:20;;;;;;;83.78;36.30;;;;;;;5.14;100.00;103342.09;4800518;29;20537;-80
2022/03/23 08:42:45;;;;;;;96.00;37.95;;;;;;;5.17;100.00;103344.56;4804189;29;20041;-79
2022/03/23 08:45:11;;;;;;;81.32;37.38;;;;;;;5.16;100.00;103341.00;4790237;29;20454;-80
2022/03/23 08:47:38;;;;;;;153.27;42.80;;;;;;;5.18;100.00;103340.94;4776109;29;20034;-79
2022/03/23 08:50:09;;;;;;;101.38;39.80;;;;;;;5.17;100.00;103340.09;4805908;29;20078;-79
2022/03/23 08:52:35;;;;;;;97.72;39.80;;;;;;;5.17;100.00;103341.91;4789393;29;20099;-79
2022/03/23 08:55:05;;;;;;;106.53;41.33;;;;;;;5.15;100.00;103338.47;4789262;29;20039;-80
2022/03/23 08:57:31;;;;;;;102.10;40.03;;;;;;;5.23;100.00;103345.94;4807181;29;20043;-79
2022/03/23 08:59:57;;;;;;;98.35;40.45;;;;;;;5.36;100.00;103341.50;4791000;29;20038;-79
2022/03/23 09:02:22;;;;;;;89.40;38.70;;;;;;;5.41;100.00;103326.91;4783295;29;20032;-79
2022/03/23 09:04:48;;;;;;;74.72;35.63;;;;;;;5.54;100.00;103348.31;4783365;29;20061;-79
2022/03/23 09:07:13;;;;;;;83.50;35.63;;;;;;;5.42;100.00;103343.78;4801268;29;20394;-80
2022/03/23 09:09:38;;;;;;;117.13;42.05;;;;;;;5.45;100.00;103342.72;4769617;29;20121;-79
2022/03/23 09:12:05;;;;;;;82.20;38.33;;;;;;;5.39;100.00;103334.16;4785969;29;20051;-79
2022/03/23 09:14:30;;;;;;;91.30;37.42;;;;;;;5.49;100.00;103349.56;4799946;29;20149;-79
2022/03/23 09:16:56;;;;;;;103.55;41.50;;;;;;;5.37;100.00;103348.59;4770342;29;20591;-79
2022/03/23 09:19:22;;;;;;;181.27;43.58;;;;;;;5.26;100.00;103348.41;4782853;29;20147;-80
2022/03/23 09:21:48;;;;;;;143.63;43.13;;;;;;;5.19;100.00;103348.81;4790917;29;20054;-79
2022/03/23 09:24:13;;;;;;;118.82;42.65;;;;;;;5.01;100.00;103323.38;4790664;29;20058;-79
2022/03/23 09:26:39;;;;;;;261.60;51.00;;;;;;;5.14;100.00;103342.94;4801404;29;20039;-79
2022/03/23 09:29:06;;;;;;;118.68;39.58;;;;;;;5.01;100.00;103331.38;4803215;29;20049;-79
2022/03/23 09:31:33;;;;;;;133.63;40.60;;;;;;;5.14;100.00;103350.09;4809755;29;20030;-79
2022/03/23 09:34:02;;;;;;;113.10;39.28;;;;;;;5.11;100.00;103355.66;4772581;29;20154;-79
2022/03/23 09:39:12;;;;;;;105.45;37.30;;;;;;;5.27;100.00;103355.50;4792412;29;20099;-80
2022/03/23 09:41:38;;;;;;;197.52;44.65;;;;;;;5.30;100.00;103357.97;4780589;29;20077;-79
2022/03/23 09:44:05;;;;;;;169.48;43.92;;;;;;;5.29;100.00;103362.41;4770951;29;20057;-79
2022/03/23 09:46:32;;;;;;;96.55;37.83;;;;;;;5.28;100.00;103354.53;4790047;29;20089;-80
2022/03/23 09:48:57;;;;;;;129.35;43.90;;;;;;;5.32;100.00;103361.38;4788069;29;20112;-80
2022/03/23 09:51:24;;;;;;;107.63;40.58;;;;;;;5.41;100.00;103366.09;4786520;29;20038;-79
2022/03/23 09:53:52;;;;;;;107.28;41.28;;;;;;;5.23;100.00;103327.28;4805668;29;20115;-79
2022/03/23 09:56:19;;;;;;;100.15;39.25;;;;;;;5.44;100.00;103363.22;4798653;29;20030;-79
2022/03/23 09:58:44;;;;;;;95.55;42.70;;;;;;;5.36;100.00;103349.53;4804460;29;20497;-80
2022/03/23 10:01:28;;;;;;;76.13;35.90;;;;;;;5.48;100.00;103356.72;4798553;29;20039;-79
2022/03/23 10:03:54;;;;;;;64.50;35.08;;;;;;;5.54;100.00;103356.31;4797473;29;20254;-78
2022/03/23 10:06:41;;;;;;;66.15;35.28;;;;;;;5.45;100.00;103364.94;4799972;29;20034;-80
2022/03/23 10:09:25;;;;;;;59.90;33.60;;;;;;;5.45;100.00;103362.25;4797025;29;20052;-79
2022/03/23 10:12:28;;;;;;;70.13;35.50;;;;;;;5.54;100.00;103363.47;4798841;29;20042;-79
2022/03/23 10:15:31;;;;;;;69.93;37.05;;;;;;;5.59;100.00;103364.00;4798095;29;20047;-79
2022/03/23 10:18:20;;;;;;;70.60;36.42;;;;;;;5.53;100.00;103359.94;4798856;29;20035;-80
2022/03/23 10:20:46;;;;;;;61.45;34.70;;;;;;;5.52;100.00;103366.22;4783345;29;20037;-76
2022/03/23 10:23:12;;;;;;;72.47;37.92;;;;;;;5.50;100.00;103361.97;4784301;29;20114;-78
2022/03/23 10:25:39;;;;;;;62.25;35.53;;;;;;;5.53;100.00;103359.94;4799481;29;20537;-79
2022/03/23 10:28:15;;;;;;;58.30;34.03;;;;;;;5.65;100.00;103356.44;4780726;29;20126;-78
2022/03/23 10:30:42;;;;;;;51.42;30.70;;;;;;;5.60;100.00;103345.22;4802206;29;20031;-79
2022/03/23 10:33:24;;;;;;;55.97;33.75;;;;;;;5.57;100.00;103334.75;4779079;29;20035;-78
2022/03/23 10:35:50;;;;;;;51.55;32.50;;;;;;;5.76;100.00;103361.06;4779107;29;20110;-79
2022/03/23 10:38:21;;;;;;;57.30;34.35;;;;;;;5.78;100.00;103356.44;4777642;29;20035;-78
2022/03/23 10:40:50;;;;;;;53.38;32.75;;;;;;;5.73;100.00;103363.94;4786640;29;20456;-78
2022/03/23 10:43:19;;;;;;;54.97;35.42;;;;;;;5.61;100.00;103354.09;4785235;29;20026;-78
2022/03/23 10:45:45;;;;;;;54.80;33.78;;;;;;;5.56;100.00;103346.41;4785144;29;20038;-79
2022/03/23 10:48:16;;;;;;;51.92;33.03;;;;;;;5.62;100.00;103356.63;4783945;29;20028;-78
2022/03/23 10:50:58;;;;;;;56.42;32.72;;;;;;;5.55;100.00;103352.66;4786887;29;20031;-78
2022/03/23 10:53:32;;;;;;;57.00;32.20;;;;;;;5.58;100.00;103355.13;4787148;29;20359;-79
2022/03/23 10:55:59;;;;;;;54.67;32.90;;;;;;;5.52;100.00;103349.34;4800210;29;20526;-78
2022/03/23 10:58:26;;;;;;;53.05;32.08;;;;;;;5.56;100.00;103350.84;4802355;29;20102;-78
2022/03/23 11:01:20;;;;;;;53.53;31.88;;;;;;;5.44;100.00;103333.84;4784645;29;20031;-78
2022/03/23 11:03:48;;;;;;;59.88;35.38;;;;;;;5.42;100.00;103330.44;4784495;29;20027;-80
2022/03/23 11:06:25;;;;;;;50.60;34.95;;;;;;;5.46;100.00;103347.94;4788911;29;20038;-79
2022/03/23 11:08:52;;;;;;;55.90;35.85;;;;;;;5.42;100.00;103339.28;4804452;29;20031;-79
2022/03/23 11:16:39;;;;;;;55.85;33.72;;;;;;;5.27;100.00;103320.78;4801349;29;20039;-80
2022/03/23 11:19:21;;;;;;;53.25;33.05;;;;;;;5.50;100.00;103341.47;4788341;29;20027;-79